Littleton, Maine
Current Conditions -  °F | °C
As of 1:53 AM on Saturday 25 Oct 2014 (Local Time) from KHUL Reporting Station
Overcast Overcast  
Wind Chill: 36°   Ceiling: 700
Heat Index: 42°   Visibility: 10mi
Dew Point: 40°   Wind: 12mph
Humidity: 92%   Direction: 350°N
Pressure: 29.62"   Gusts: 17mph
Location:  46.1163°N, 67.9329°W
Report Text: KHUL 250553Z AUTO 35010G15KT 10SM OVC007 06/04 A2962 RMK AO2 CIG 005V009 SLP034 60002 T00560044 10056 20050 55004
Loading
Personal Weather Stations






























Interactive Weather Map
Tropical Storm Tracking
New forecast layout! Learn more

10-Day Weather Forecast

Advertisements
Track Severe Weather on mobile